sensor_id;sensor_type;location;lat;lon;timestamp;P1;durP1;ratioP1;P2;durP2;ratioP2
55497;SDS011;41357;52.806;18.268;2023-03-20T00:00:43;116.68;;;39.03;;
55497;SDS011;41357;52.806;18.268;2023-03-20T00:03:11;98.82;;;37.75;;
55497;SDS011;41357;52.806;18.268;2023-03-20T00:05:38;97.05;;;35.92;;
55497;SDS011;41357;52.806;18.268;2023-03-20T00:08:05;94.60;;;33.88;;
55497;SDS011;41357;52.806;18.268;2023-03-20T00:10:36;85.13;;;31.38;;
55497;SDS011;41357;52.806;18.268;2023-03-20T00:13:03;72.82;;;30.13;;
55497;SDS011;41357;52.806;18.268;2023-03-20T00:15:31;68.38;;;26.52;;
55497;SDS011;41357;52.806;18.268;2023-03-20T00:17:58;63.33;;;26.13;;
55497;SDS011;41357;52.806;18.268;2023-03-20T00:20:25;66.95;;;26.85;;
55497;SDS011;41357;52.806;18.268;2023-03-20T00:22:51;64.05;;;26.92;;
55497;SDS011;41357;52.806;18.268;2023-03-20T00:25:19;69.35;;;28.50;;
55497;SDS011;41357;52.806;18.268;2023-03-20T00:27:46;74.45;;;29.73;;
55497;SDS011;41357;52.806;18.268;2023-03-20T00:30:19;74.32;;;29.23;;
55497;SDS011;41357;52.806;18.268;2023-03-20T00:32:49;69.70;;;28.48;;
55497;SDS011;41357;52.806;18.268;2023-03-20T00:35:20;81.15;;;35.40;;
55497;SDS011;41357;52.806;18.268;2023-03-20T00:40:13;57.08;;;26.85;;
55497;SDS011;41357;52.806;18.268;2023-03-20T00:42:39;61.80;;;27.75;;
55497;SDS011;41357;52.806;18.268;2023-03-20T00:45:09;63.45;;;26.50;;
55497;SDS011;41357;52.806;18.268;2023-03-20T00:47:36;67.95;;;28.90;;
55497;SDS011;41357;52.806;18.268;2023-03-20T00:50:06;68.70;;;27.98;;
55497;SDS011;41357;52.806;18.268;2023-03-20T00:52:32;71.07;;;30.38;;
55497;SDS011;41357;52.806;18.268;2023-03-20T00:54:59;71.20;;;30.50;;
55497;SDS011;41357;52.806;18.268;2023-03-20T00:57:26;65.95;;;29.55;;
55497;SDS011;41357;52.806;18.268;2023-03-20T01:00:02;70.70;;;29.67;;
55497;SDS011;41357;52.806;18.268;2023-03-20T01:02:29;63.30;;;26.77;;
55497;SDS011;41357;52.806;18.268;2023-03-20T01:04:56;69.85;;;28.80;;
55497;SDS011;41357;52.806;18.268;2023-03-20T01:07:22;71.22;;;28.85;;
55497;SDS011;41357;52.806;18.268;2023-03-20T01:09:48;69.63;;;29.70;;
55497;SDS011;41357;52.806;18.268;2023-03-20T01:12:15;71.00;;;31.63;;
55497;SDS011;41357;52.806;18.268;2023-03-20T01:14:41;75.57;;;29.20;;
55497;SDS011;41357;52.806;18.268;2023-03-20T01:17:20;74.57;;;31.00;;
55497;SDS011;41357;52.806;18.268;2023-03-20T01:19:47;68.13;;;30.17;;
55497;SDS011;41357;52.806;18.268;2023-03-20T01:22:14;71.90;;;31.25;;
55497;SDS011;41357;52.806;18.268;2023-03-20T01:24:42;70.05;;;31.25;;
55497;SDS011;41357;52.806;18.268;2023-03-20T01:27:15;68.53;;;28.63;;
55497;SDS011;41357;52.806;18.268;2023-03-20T01:29:41;76.07;;;28.30;;
55497;SDS011;41357;52.806;18.268;2023-03-20T01:32:12;75.20;;;28.73;;
55497;SDS011;41357;52.806;18.268;2023-03-20T01:34:38;68.45;;;28.70;;
55497;SDS011;41357;52.806;18.268;2023-03-20T01:37:05;73.57;;;27.80;;
55497;SDS011;41357;52.806;18.268;2023-03-20T01:39:35;66.33;;;26.90;;
55497;SDS011;41357;52.806;18.268;2023-03-20T01:42:02;57.15;;;24.67;;
55497;SDS011;41357;52.806;18.268;2023-03-20T01:44:30;55.50;;;24.25;;
55497;SDS011;41357;52.806;18.268;2023-03-20T01:46:56;62.53;;;28.42;;
55497;SDS011;41357;52.806;18.268;2023-03-20T01:51:50;55.63;;;26.35;;
55497;SDS011;41357;52.806;18.268;2023-03-20T01:57:03;55.55;;;25.25;;
55497;SDS011;41357;52.806;18.268;2023-03-20T01:59:38;60.40;;;24.58;;
55497;SDS011;41357;52.806;18.268;2023-03-20T02:02:05;58.13;;;23.63;;
55497;SDS011;41357;52.806;18.268;2023-03-20T02:04:33;56.72;;;27.35;;
55497;SDS011;41357;52.806;18.268;2023-03-20T02:07:01;61.80;;;28.10;;
55497;SDS011;41357;52.806;18.268;2023-03-20T02:09:28;55.35;;;26.98;;
55497;SDS011;41357;52.806;18.268;2023-03-20T02:11:54;53.67;;;25.65;;
55497;SDS011;41357;52.806;18.268;2023-03-20T02:14:21;49.50;;;24.80;;
55497;SDS011;41357;52.806;18.268;2023-03-20T02:16:47;64.65;;;26.02;;
55497;SDS011;41357;52.806;18.268;2023-03-20T02:19:20;57.00;;;26.73;;
55497;SDS011;41357;52.806;18.268;2023-03-20T02:34:54;62.47;;;24.73;;
55497;SDS011;41357;52.806;18.268;2023-03-20T02:37:23;65.60;;;25.65;;
55497;SDS011;41357;52.806;18.268;2023-03-20T02:42:44;67.93;;;29.60;;
55497;SDS011;41357;52.806;18.268;2023-03-20T02:45:24;63.60;;;27.45;;
55497;SDS011;41357;52.806;18.268;2023-03-20T02:47:53;67.68;;;28.45;;
55497;SDS011;41357;52.806;18.268;2023-03-20T02:50:26;83.10;;;29.77;;
55497;SDS011;41357;52.806;18.268;2023-03-20T03:00:54;60.45;;;28.42;;
55497;SDS011;41357;52.806;18.268;2023-03-20T03:08:15;63.80;;;25.05;;
55497;SDS011;41357;52.806;18.268;2023-03-20T03:13:28;58.25;;;26.23;;
55497;SDS011;41357;52.806;18.268;2023-03-20T03:15:58;71.53;;;26.85;;
55497;SDS011;41357;52.806;18.268;2023-03-20T03:18:27;55.75;;;25.15;;
55497;SDS011;41357;52.806;18.268;2023-03-20T03:20:55;59.08;;;25.67;;
55497;SDS011;41357;52.806;18.268;2023-03-20T03:23:38;61.33;;;25.85;;
55497;SDS011;41357;52.806;18.268;2023-03-20T03:26:08;57.92;;;24.30;;
55497;SDS011;41357;52.806;18.268;2023-03-20T03:28:40;60.67;;;25.83;;
55497;SDS011;41357;52.806;18.268;2023-03-20T03:31:10;69.55;;;26.50;;
55497;SDS011;41357;52.806;18.268;2023-03-20T03:33:38;62.83;;;24.70;;
55497;SDS011;41357;52.806;18.268;2023-03-20T03:36:12;57.13;;;25.27;;
55497;SDS011;41357;52.806;18.268;2023-03-20T03:41:17;59.00;;;26.80;;
55497;SDS011;41357;52.806;18.268;2023-03-20T03:43:47;62.40;;;25.45;;
55497;SDS011;41357;52.806;18.268;2023-03-20T03:46:38;63.85;;;25.95;;
55497;SDS011;41357;52.806;18.268;2023-03-20T03:49:01;53.78;;;23.92;;
55497;SDS011;41357;52.806;18.268;2023-03-20T03:51:30;52.88;;;24.23;;
55497;SDS011;41357;52.806;18.268;2023-03-20T03:53:58;51.40;;;24.27;;
55497;SDS011;41357;52.806;18.268;2023-03-20T03:56:25;60.30;;;25.52;;
55497;SDS011;41357;52.806;18.268;2023-03-20T03:58:54;60.75;;;25.65;;
55497;SDS011;41357;52.806;18.268;2023-03-20T04:01:22;58.55;;;25.98;;
55497;SDS011;41357;52.806;18.268;2023-03-20T04:03:49;55.92;;;24.02;;
55497;SDS011;41357;52.806;18.268;2023-03-20T04:06:16;56.33;;;25.55;;
55497;SDS011;41357;52.806;18.268;2023-03-20T04:08:43;47.95;;;23.83;;
55497;SDS011;41357;52.806;18.268;2023-03-20T04:11:15;52.67;;;24.25;;
55497;SDS011;41357;52.806;18.268;2023-03-20T04:13:42;53.85;;;24.10;;
55497;SDS011;41357;52.806;18.268;2023-03-20T04:16:12;54.00;;;23.15;;
55497;SDS011;41357;52.806;18.268;2023-03-20T04:18:39;46.47;;;23.98;;
55497;SDS011;41357;52.806;18.268;2023-03-20T04:21:05;51.70;;;24.05;;
55497;SDS011;41357;52.806;18.268;2023-03-20T04:23:31;45.03;;;21.88;;
55497;SDS011;41357;52.806;18.268;2023-03-20T04:25:57;53.35;;;23.63;;
55497;SDS011;41357;52.806;18.268;2023-03-20T04:28:24;52.05;;;23.85;;
55497;SDS011;41357;52.806;18.268;2023-03-20T04:30:54;48.72;;;24.73;;
55497;SDS011;41357;52.806;18.268;2023-03-20T04:33:20;51.00;;;23.97;;
55497;SDS011;41357;52.806;18.268;2023-03-20T04:35:46;48.78;;;22.48;;
55497;SDS011;41357;52.806;18.268;2023-03-20T04:38:13;50.45;;;23.85;;
55497;SDS011;41357;52.806;18.268;2023-03-20T04:40:39;58.50;;;24.52;;
55497;SDS011;41357;52.806;18.268;2023-03-20T04:43:05;49.88;;;22.75;;
55497;SDS011;41357;52.806;18.268;2023-03-20T04:45:31;48.35;;;24.55;;
55497;SDS011;41357;52.806;18.268;2023-03-20T04:47:58;54.25;;;23.60;;
55497;SDS011;41357;52.806;18.268;2023-03-20T04:50:24;50.22;;;23.17;;
55497;SDS011;41357;52.806;18.268;2023-03-20T04:52:50;46.40;;;22.88;;
55497;SDS011;41357;52.806;18.268;2023-03-20T04:55:16;51.47;;;24.15;;
55497;SDS011;41357;52.806;18.268;2023-03-20T04:57:42;52.53;;;25.00;;
55497;SDS011;41357;52.806;18.268;2023-03-20T05:00:08;54.80;;;23.73;;
55497;SDS011;41357;52.806;18.268;2023-03-20T05:02:35;53.05;;;24.75;;
55497;SDS011;41357;52.806;18.268;2023-03-20T05:05:01;47.88;;;24.08;;
55497;SDS011;41357;52.806;18.268;2023-03-20T05:07:27;51.28;;;24.60;;
55497;SDS011;41357;52.806;18.268;2023-03-20T05:09:53;52.78;;;25.88;;
55497;SDS011;41357;52.806;18.268;2023-03-20T05:12:19;57.10;;;23.83;;
55497;SDS011;41357;52.806;18.268;2023-03-20T05:14:46;50.22;;;23.52;;
55497;SDS011;41357;52.806;18.268;2023-03-20T05:17:13;52.83;;;23.80;;
55497;SDS011;41357;52.806;18.268;2023-03-20T05:19:39;52.90;;;24.80;;
55497;SDS011;41357;52.806;18.268;2023-03-20T05:22:07;52.60;;;23.77;;
55497;SDS011;41357;52.806;18.268;2023-03-20T05:24:33;52.95;;;23.95;;
55497;SDS011;41357;52.806;18.268;2023-03-20T05:26:59;53.53;;;25.00;;
55497;SDS011;41357;52.806;18.268;2023-03-20T05:29:25;55.28;;;25.55;;
55497;SDS011;41357;52.806;18.268;2023-03-20T05:31:51;58.58;;;23.13;;
55497;SDS011;41357;52.806;18.268;2023-03-20T05:34:19;50.28;;;23.40;;
55497;SDS011;41357;52.806;18.268;2023-03-20T05:36:46;57.22;;;25.20;;
55497;SDS011;41357;52.806;18.268;2023-03-20T05:39:12;54.30;;;24.60;;
55497;SDS011;41357;52.806;18.268;2023-03-20T05:41:38;49.65;;;24.40;;
55497;SDS011;41357;52.806;18.268;2023-03-20T05:44:04;50.85;;;24.33;;
55497;SDS011;41357;52.806;18.268;2023-03-20T05:46:30;55.10;;;25.20;;
55497;SDS011;41357;52.806;18.268;2023-03-20T05:48:56;67.13;;;27.83;;
55497;SDS011;41357;52.806;18.268;2023-03-20T05:51:22;57.33;;;27.80;;
55497;SDS011;41357;52.806;18.268;2023-03-20T05:53:49;52.97;;;26.23;;
55497;SDS011;41357;52.806;18.268;2023-03-20T05:56:15;53.75;;;24.83;;
55497;SDS011;41357;52.806;18.268;2023-03-20T05:58:41;55.65;;;24.27;;
55497;SDS011;41357;52.806;18.268;2023-03-20T06:01:07;57.17;;;25.90;;
55497;SDS011;41357;52.806;18.268;2023-03-20T06:03:33;46.65;;;24.67;;
55497;SDS011;41357;52.806;18.268;2023-03-20T06:06:00;43.20;;;23.92;;
55497;SDS011;41357;52.806;18.268;2023-03-20T06:08:26;54.53;;;25.33;;
55497;SDS011;41357;52.806;18.268;2023-03-20T06:10:54;56.58;;;25.85;;
55497;SDS011;41357;52.806;18.268;2023-03-20T06:13:20;67.07;;;30.67;;
55497;SDS011;41357;52.806;18.268;2023-03-20T06:15:46;82.53;;;39.25;;
55497;SDS011;41357;52.806;18.268;2023-03-20T06:18:13;89.13;;;39.50;;
55497;SDS011;41357;52.806;18.268;2023-03-20T06:20:39;91.13;;;44.95;;
55497;SDS011;41357;52.806;18.268;2023-03-20T06:23:05;85.60;;;40.42;;
55497;SDS011;41357;52.806;18.268;2023-03-20T06:25:32;61.67;;;30.60;;
55497;SDS011;41357;52.806;18.268;2023-03-20T06:27:58;54.20;;;25.33;;
55497;SDS011;41357;52.806;18.268;2023-03-20T06:30:24;53.53;;;24.67;;
55497;SDS011;41357;52.806;18.268;2023-03-20T06:32:51;55.67;;;25.13;;
55497;SDS011;41357;52.806;18.268;2023-03-20T06:35:17;61.17;;;25.50;;
55497;SDS011;41357;52.806;18.268;2023-03-20T06:37:43;54.70;;;26.10;;
55497;SDS011;41357;52.806;18.268;2023-03-20T06:40:10;54.00;;;25.13;;
55497;SDS011;41357;52.806;18.268;2023-03-20T06:42:36;47.20;;;22.90;;
55497;SDS011;41357;52.806;18.268;2023-03-20T06:45:02;58.80;;;24.98;;
55497;SDS011;41357;52.806;18.268;2023-03-20T06:47:28;51.38;;;24.17;;
55497;SDS011;41357;52.806;18.268;2023-03-20T06:49:54;62.25;;;27.20;;
55497;SDS011;41357;52.806;18.268;2023-03-20T06:52:21;76.13;;;31.60;;
55497;SDS011;41357;52.806;18.268;2023-03-20T06:54:47;70.90;;;30.08;;
55497;SDS011;41357;52.806;18.268;2023-03-20T06:57:15;63.33;;;25.13;;
55497;SDS011;41357;52.806;18.268;2023-03-20T06:59:42;46.65;;;21.17;;
55497;SDS011;41357;52.806;18.268;2023-03-20T07:02:09;56.63;;;23.02;;
55497;SDS011;41357;52.806;18.268;2023-03-20T07:04:35;50.85;;;20.08;;
55497;SDS011;41357;52.806;18.268;2023-03-20T07:07:01;39.33;;;21.80;;
55497;SDS011;41357;52.806;18.268;2023-03-20T07:09:28;44.65;;;21.27;;
55497;SDS011;41357;52.806;18.268;2023-03-20T07:11:54;52.70;;;22.90;;
55497;SDS011;41357;52.806;18.268;2023-03-20T07:14:20;44.40;;;21.25;;
55497;SDS011;41357;52.806;18.268;2023-03-20T07:16:47;45.10;;;22.30;;
55497;SDS011;41357;52.806;18.268;2023-03-20T07:19:13;45.42;;;21.33;;
55497;SDS011;41357;52.806;18.268;2023-03-20T07:21:39;45.75;;;23.08;;
55497;SDS011;41357;52.806;18.268;2023-03-20T07:24:06;38.97;;;21.17;;
55497;SDS011;41357;52.806;18.268;2023-03-20T07:26:32;46.30;;;22.67;;
55497;SDS011;41357;52.806;18.268;2023-03-20T07:28:58;49.40;;;21.35;;
55497;SDS011;41357;52.806;18.268;2023-03-20T07:31:25;47.67;;;21.70;;
55497;SDS011;41357;52.806;18.268;2023-03-20T07:33:52;47.63;;;22.63;;
55497;SDS011;41357;52.806;18.268;2023-03-20T07:36:19;41.83;;;21.02;;
55497;SDS011;41357;52.806;18.268;2023-03-20T07:38:45;47.53;;;22.77;;
55497;SDS011;41357;52.806;18.268;2023-03-20T07:41:11;46.85;;;21.23;;
55497;SDS011;41357;52.806;18.268;2023-03-20T07:43:37;45.88;;;21.95;;
55497;SDS011;41357;52.806;18.268;2023-03-20T07:46:04;39.47;;;18.48;;
55497;SDS011;41357;52.806;18.268;2023-03-20T07:48:31;32.75;;;16.88;;
55497;SDS011;41357;52.806;18.268;2023-03-20T07:50:57;36.03;;;17.20;;
55497;SDS011;41357;52.806;18.268;2023-03-20T07:53:23;27.48;;;13.35;;
55497;SDS011;41357;52.806;18.268;2023-03-20T07:55:49;32.60;;;14.73;;
55497;SDS011;41357;52.806;18.268;2023-03-20T07:58:15;24.48;;;12.30;;
55497;SDS011;41357;52.806;18.268;2023-03-20T08:00:41;28.70;;;14.18;;
55497;SDS011;41357;52.806;18.268;2023-03-20T08:03:08;31.10;;;14.80;;
55497;SDS011;41357;52.806;18.268;2023-03-20T08:05:35;30.80;;;16.42;;
55497;SDS011;41357;52.806;18.268;2023-03-20T08:08:01;29.92;;;16.60;;
55497;SDS011;41357;52.806;18.268;2023-03-20T08:10:28;27.15;;;16.23;;
55497;SDS011;41357;52.806;18.268;2023-03-20T08:12:54;31.70;;;16.58;;
55497;SDS011;41357;52.806;18.268;2023-03-20T08:15:20;36.42;;;16.90;;
55497;SDS011;41357;52.806;18.268;2023-03-20T08:17:46;28.77;;;17.20;;
55497;SDS011;41357;52.806;18.268;2023-03-20T08:20:13;28.08;;;16.83;;
55497;SDS011;41357;52.806;18.268;2023-03-20T08:22:41;26.90;;;16.33;;
55497;SDS011;41357;52.806;18.268;2023-03-20T08:25:07;32.33;;;17.17;;
55497;SDS011;41357;52.806;18.268;2023-03-20T08:27:34;33.63;;;21.65;;
55497;SDS011;41357;52.806;18.268;2023-03-20T08:30:00;42.45;;;21.35;;
55497;SDS011;41357;52.806;18.268;2023-03-20T08:32:26;49.97;;;24.00;;
55497;SDS011;41357;52.806;18.268;2023-03-20T08:34:53;49.35;;;22.40;;
55497;SDS011;41357;52.806;18.268;2023-03-20T08:37:20;45.92;;;23.33;;
55497;SDS011;41357;52.806;18.268;2023-03-20T08:39:46;38.40;;;21.73;;
55497;SDS011;41357;52.806;18.268;2023-03-20T08:42:12;35.90;;;18.38;;
55497;SDS011;41357;52.806;18.268;2023-03-20T08:44:38;36.63;;;18.85;;
55497;SDS011;41357;52.806;18.268;2023-03-20T08:47:04;39.75;;;20.20;;
55497;SDS011;41357;52.806;18.268;2023-03-20T08:49:32;31.77;;;18.08;;
55497;SDS011;41357;52.806;18.268;2023-03-20T08:51:58;36.72;;;19.08;;
55497;SDS011;41357;52.806;18.268;2023-03-20T08:54:25;38.65;;;22.02;;
55497;SDS011;41357;52.806;18.268;2023-03-20T08:56:51;42.15;;;23.38;;
55497;SDS011;41357;52.806;18.268;2023-03-20T08:59:17;41.15;;;22.40;;
55497;SDS011;41357;52.806;18.268;2023-03-20T09:01:44;50.75;;;22.52;;
55497;SDS011;41357;52.806;18.268;2023-03-20T09:04:10;33.45;;;18.88;;
55497;SDS011;41357;52.806;18.268;2023-03-20T09:06:37;42.63;;;20.92;;
55497;SDS011;41357;52.806;18.268;2023-03-20T09:09:04;37.10;;;20.35;;
55497;SDS011;41357;52.806;18.268;2023-03-20T09:11:30;38.45;;;20.77;;
55497;SDS011;41357;52.806;18.268;2023-03-20T09:13:57;42.10;;;20.98;;
55497;SDS011;41357;52.806;18.268;2023-03-20T09:16:23;35.60;;;19.77;;
55497;SDS011;41357;52.806;18.268;2023-03-20T09:18:50;49.58;;;21.38;;
55497;SDS011;41357;52.806;18.268;2023-03-20T09:21:16;36.58;;;20.20;;
55497;SDS011;41357;52.806;18.268;2023-03-20T09:23:42;34.88;;;21.42;;
55497;SDS011;41357;52.806;18.268;2023-03-20T09:26:08;35.97;;;20.40;;
55497;SDS011;41357;52.806;18.268;2023-03-20T09:28:34;40.60;;;22.10;;
55497;SDS011;41357;52.806;18.268;2023-03-20T09:31:01;37.63;;;21.88;;
55497;SDS011;41357;52.806;18.268;2023-03-20T09:33:27;38.40;;;20.35;;
55497;SDS011;41357;52.806;18.268;2023-03-20T09:35:53;38.67;;;20.15;;
55497;SDS011;41357;52.806;18.268;2023-03-20T09:38:20;40.38;;;21.42;;
55497;SDS011;41357;52.806;18.268;2023-03-20T09:51:01;40.65;;;21.17;;
55497;SDS011;41357;52.806;18.268;2023-03-20T09:53:30;41.63;;;22.65;;
55497;SDS011;41357;52.806;18.268;2023-03-20T09:55:58;44.97;;;22.92;;
55497;SDS011;41357;52.806;18.268;2023-03-20T09:58:26;43.65;;;25.02;;
55497;SDS011;41357;52.806;18.268;2023-03-20T10:00:54;47.10;;;27.13;;
55497;SDS011;41357;52.806;18.268;2023-03-20T10:03:43;41.38;;;24.45;;
55497;SDS011;41357;52.806;18.268;2023-03-20T10:06:14;50.00;;;27.75;;
55497;SDS011;41357;52.806;18.268;2023-03-20T10:08:41;46.13;;;26.58;;
55497;SDS011;41357;52.806;18.268;2023-03-20T10:11:15;51.78;;;29.90;;
55497;SDS011;41357;52.806;18.268;2023-03-20T10:24:08;67.30;;;34.17;;
55497;SDS011;41357;52.806;18.268;2023-03-20T10:26:35;57.88;;;31.85;;
55497;SDS011;41357;52.806;18.268;2023-03-20T10:29:24;57.05;;;32.20;;
55497;SDS011;41357;52.806;18.268;2023-03-20T10:42:24;50.92;;;29.20;;
55497;SDS011;41357;52.806;18.268;2023-03-20T10:44:57;47.10;;;26.95;;
55497;SDS011;41357;52.806;18.268;2023-03-20T10:47:25;50.45;;;28.60;;
55497;SDS011;41357;52.806;18.268;2023-03-20T10:49:53;45.08;;;27.73;;
55497;SDS011;41357;52.806;18.268;2023-03-20T10:52:24;43.55;;;27.40;;
55497;SDS011;41357;52.806;18.268;2023-03-20T10:54:59;49.55;;;27.25;;
55497;SDS011;41357;52.806;18.268;2023-03-20T10:57:30;55.58;;;28.52;;
55497;SDS011;41357;52.806;18.268;2023-03-20T10:59:58;52.85;;;28.58;;
55497;SDS011;41357;52.806;18.268;2023-03-20T11:02:27;54.67;;;29.35;;
55497;SDS011;41357;52.806;18.268;2023-03-20T11:04:54;41.42;;;25.35;;
55497;SDS011;41357;52.806;18.268;2023-03-20T11:10:06;40.15;;;25.65;;
55497;SDS011;41357;52.806;18.268;2023-03-20T11:12:33;40.42;;;23.27;;
55497;SDS011;41357;52.806;18.268;2023-03-20T11:14:59;41.85;;;24.38;;
55497;SDS011;41357;52.806;18.268;2023-03-20T11:17:28;42.00;;;24.52;;
55497;SDS011;41357;52.806;18.268;2023-03-20T11:19:54;49.67;;;27.05;;
55497;SDS011;41357;52.806;18.268;2023-03-20T11:22:28;45.95;;;27.25;;
55497;SDS011;41357;52.806;18.268;2023-03-20T11:24:59;46.15;;;27.33;;
55497;SDS011;41357;52.806;18.268;2023-03-20T11:27:27;44.97;;;27.00;;
55497;SDS011;41357;52.806;18.268;2023-03-20T11:29:54;55.10;;;30.38;;
55497;SDS011;41357;52.806;18.268;2023-03-20T11:34:53;67.55;;;33.80;;
55497;SDS011;41357;52.806;18.268;2023-03-20T11:37:27;62.53;;;35.80;;
55497;SDS011;41357;52.806;18.268;2023-03-20T11:42:23;55.38;;;30.65;;
55497;SDS011;41357;52.806;18.268;2023-03-20T11:45:00;61.15;;;31.85;;
55497;SDS011;41357;52.806;18.268;2023-03-20T11:47:27;64.43;;;32.58;;
55497;SDS011;41357;52.806;18.268;2023-03-20T11:49:57;52.55;;;31.75;;
55497;SDS011;41357;52.806;18.268;2023-03-20T11:52:34;61.75;;;32.42;;
55497;SDS011;41357;52.806;18.268;2023-03-20T11:55:02;52.55;;;30.65;;
55497;SDS011;41357;52.806;18.268;2023-03-20T11:57:35;48.33;;;29.15;;
55497;SDS011;41357;52.806;18.268;2023-03-20T12:00:05;48.95;;;29.60;;
55497;SDS011;41357;52.806;18.268;2023-03-20T12:02:32;50.40;;;29.65;;
55497;SDS011;41357;52.806;18.268;2023-03-20T12:05:00;54.55;;;32.67;;
55497;SDS011;41357;52.806;18.268;2023-03-20T12:09:54;53.05;;;28.83;;
55497;SDS011;41357;52.806;18.268;2023-03-20T12:15:04;47.80;;;28.20;;
55497;SDS011;41357;52.806;18.268;2023-03-20T12:22:48;43.55;;;28.27;;
55497;SDS011;41357;52.806;18.268;2023-03-20T12:27:43;46.72;;;26.00;;
55497;SDS011;41357;52.806;18.268;2023-03-20T12:30:14;42.60;;;27.08;;
55497;SDS011;41357;52.806;18.268;2023-03-20T12:32:46;43.53;;;25.33;;
55497;SDS011;41357;52.806;18.268;2023-03-20T12:35:30;43.25;;;25.98;;
55497;SDS011;41357;52.806;18.268;2023-03-20T12:37:57;46.13;;;26.50;;
55497;SDS011;41357;52.806;18.268;2023-03-20T12:40:41;46.05;;;25.58;;
55497;SDS011;41357;52.806;18.268;2023-03-20T12:43:14;37.60;;;23.30;;
55497;SDS011;41357;52.806;18.268;2023-03-20T12:45:46;47.33;;;26.48;;
55497;SDS011;41357;52.806;18.268;2023-03-20T12:50:47;44.88;;;25.67;;
55497;SDS011;41357;52.806;18.268;2023-03-20T12:53:19;44.33;;;23.80;;
55497;SDS011;41357;52.806;18.268;2023-03-20T12:58:31;41.22;;;24.63;;
55497;SDS011;41357;52.806;18.268;2023-03-20T13:01:02;40.40;;;24.65;;
55497;SDS011;41357;52.806;18.268;2023-03-20T13:13:47;38.42;;;21.00;;
55497;SDS011;41357;52.806;18.268;2023-03-20T13:16:19;34.05;;;22.65;;
55497;SDS011;41357;52.806;18.268;2023-03-20T13:18:52;31.08;;;21.42;;
55497;SDS011;41357;52.806;18.268;2023-03-20T13:24:22;35.35;;;22.88;;
55497;SDS011;41357;52.806;18.268;2023-03-20T13:37:29;34.38;;;21.88;;
55497;SDS011;41357;52.806;18.268;2023-03-20T13:42:31;22.33;;;15.47;;
55497;SDS011;41357;52.806;18.268;2023-03-20T13:45:04;25.25;;;16.08;;
55497;SDS011;41357;52.806;18.268;2023-03-20T13:47:32;27.35;;;17.13;;
55497;SDS011;41357;52.806;18.268;2023-03-20T13:50:08;30.38;;;16.48;;
55497;SDS011;41357;52.806;18.268;2023-03-20T13:52:38;24.75;;;15.82;;
55497;SDS011;41357;52.806;18.268;2023-03-20T13:55:23;26.38;;;16.10;;
55497;SDS011;41357;52.806;18.268;2023-03-20T14:00:27;24.40;;;16.10;;
55497;SDS011;41357;52.806;18.268;2023-03-20T14:05:28;22.98;;;15.77;;
55497;SDS011;41357;52.806;18.268;2023-03-20T14:08:00;22.35;;;15.15;;
55497;SDS011;41357;52.806;18.268;2023-03-20T14:10:45;24.15;;;14.73;;
55497;SDS011;41357;52.806;18.268;2023-03-20T14:13:16;20.88;;;13.07;;
55497;SDS011;41357;52.806;18.268;2023-03-20T14:15:51;17.67;;;11.98;;
55497;SDS011;41357;52.806;18.268;2023-03-20T14:18:19;18.60;;;12.85;;
55497;SDS011;41357;52.806;18.268;2023-03-20T14:20:53;19.38;;;13.23;;
55497;SDS011;41357;52.806;18.268;2023-03-20T14:23:24;28.35;;;12.48;;
55497;SDS011;41357;52.806;18.268;2023-03-20T14:25:52;20.70;;;12.77;;
55497;SDS011;41357;52.806;18.268;2023-03-20T14:30:46;16.58;;;10.57;;
55497;SDS011;41357;52.806;18.268;2023-03-20T14:35:44;15.90;;;10.05;;
55497;SDS011;41357;52.806;18.268;2023-03-20T14:41:01;12.73;;;8.73;;
55497;SDS011;41357;52.806;18.268;2023-03-20T14:46:19;18.45;;;11.00;;
55497;SDS011;41357;52.806;18.268;2023-03-20T14:48:49;14.27;;;8.98;;
55497;SDS011;41357;52.806;18.268;2023-03-20T14:53:43;11.38;;;7.25;;
55497;SDS011;41357;52.806;18.268;2023-03-20T14:56:14;15.73;;;8.40;;
55497;SDS011;41357;52.806;18.268;2023-03-20T15:01:55;16.92;;;9.65;;
55497;SDS011;41357;52.806;18.268;2023-03-20T15:03:58;11.50;;;7.93;;
55497;SDS011;41357;52.806;18.268;2023-03-20T15:06:26;16.42;;;8.05;;
55497;SDS011;41357;52.806;18.268;2023-03-20T15:08:57;16.23;;;7.50;;
55497;SDS011;41357;52.806;18.268;2023-03-20T15:11:24;11.57;;;7.25;;
55497;SDS011;41357;52.806;18.268;2023-03-20T15:13:51;10.25;;;7.18;;
55497;SDS011;41357;52.806;18.268;2023-03-20T15:16:24;12.23;;;8.23;;
55497;SDS011;41357;52.806;18.268;2023-03-20T15:18:50;15.18;;;8.57;;
55497;SDS011;41357;52.806;18.268;2023-03-20T15:23:44;18.23;;;10.35;;
55497;SDS011;41357;52.806;18.268;2023-03-20T15:26:12;21.85;;;11.43;;
55497;SDS011;41357;52.806;18.268;2023-03-20T15:28:38;21.10;;;10.75;;
55497;SDS011;41357;52.806;18.268;2023-03-20T15:31:12;18.45;;;10.48;;
55497;SDS011;41357;52.806;18.268;2023-03-20T15:33:44;14.65;;;8.68;;
55497;SDS011;41357;52.806;18.268;2023-03-20T15:36:14;21.77;;;9.43;;
55497;SDS011;41357;52.806;18.268;2023-03-20T15:38:41;9.32;;;5.75;;
55497;SDS011;41357;52.806;18.268;2023-03-20T15:41:21;8.00;;;4.97;;
55497;SDS011;41357;52.806;18.268;2023-03-20T15:43:49;9.60;;;4.93;;
55497;SDS011;41357;52.806;18.268;2023-03-20T15:46:15;8.38;;;5.10;;
55497;SDS011;41357;52.806;18.268;2023-03-20T15:48:45;10.93;;;5.97;;
55497;SDS011;41357;52.806;18.268;2023-03-20T15:51:12;9.95;;;6.25;;
55497;SDS011;41357;52.806;18.268;2023-03-20T15:53:38;10.20;;;6.65;;
55497;SDS011;41357;52.806;18.268;2023-03-20T15:56:10;16.90;;;8.25;;
55497;SDS011;41357;52.806;18.268;2023-03-20T15:58:37;17.23;;;9.48;;
55497;SDS011;41357;52.806;18.268;2023-03-20T16:01:05;18.65;;;9.85;;
55497;SDS011;41357;52.806;18.268;2023-03-20T16:03:32;20.42;;;10.77;;
55497;SDS011;41357;52.806;18.268;2023-03-20T16:06:01;25.48;;;11.55;;
55497;SDS011;41357;52.806;18.268;2023-03-20T16:08:28;20.40;;;10.40;;
55497;SDS011;41357;52.806;18.268;2023-03-20T16:10:56;17.67;;;9.20;;
55497;SDS011;41357;52.806;18.268;2023-03-20T16:13:23;23.13;;;10.85;;
55497;SDS011;41357;52.806;18.268;2023-03-20T16:15:51;23.40;;;10.07;;
55497;SDS011;41357;52.806;18.268;2023-03-20T16:18:18;21.05;;;10.77;;
55497;SDS011;41357;52.806;18.268;2023-03-20T16:20:48;19.33;;;9.73;;
55497;SDS011;41357;52.806;18.268;2023-03-20T16:23:18;20.55;;;10.30;;
55497;SDS011;41357;52.806;18.268;2023-03-20T16:25:48;20.85;;;10.70;;
55497;SDS011;41357;52.806;18.268;2023-03-20T16:28:14;23.23;;;11.57;;
55497;SDS011;41357;52.806;18.268;2023-03-20T16:30:41;20.55;;;9.18;;
55497;SDS011;41357;52.806;18.268;2023-03-20T16:33:09;24.02;;;10.48;;
55497;SDS011;41357;52.806;18.268;2023-03-20T16:35:39;23.80;;;10.52;;
55497;SDS011;41357;52.806;18.268;2023-03-20T16:41:12;19.45;;;9.98;;
55497;SDS011;41357;52.806;18.268;2023-03-20T16:43:38;24.25;;;11.75;;
55497;SDS011;41357;52.806;18.268;2023-03-20T16:46:05;22.05;;;9.95;;
55497;SDS011;41357;52.806;18.268;2023-03-20T16:48:32;24.15;;;9.38;;